メキシコシティ の空港の天気 - METARとTAF

メキシコ・シティ国際空港 ( MMMX / MEX ) - メキシコ メキシコシティ
飛行場実況気象(Metar)
観測時間01/19 04:45 CST (01/19 10:45 UTC)
風向・風速南東 2m/s
視程10km以上
天気現象
全天の4割程度の雲 雲底高度 7620m
気温11℃
湿度62%
気圧1026hPa
METARMMMX 191045Z 14003KT 10SM SCT250 11/04 A3029 NOSIG RMK 8/001
過去の天気等 Google飛行場航空写真 Wunderground天気予報

過去48時間のMETAR

飛行場予報(TAF)
発表時間: 1/18 23:09 CST (1/19 05:09 UTC)
予報対象時間: 19日0時 CST ~ 20日6時 CST
風向・風速東 3m/s
視程10km以上
全天の4割程度の雲 雲底高度 610m
全天の8割程度の雲 雲底高度 7620m
19日10時 CST から
風向・風速北 6m/s
視程10km以上
全天の4割程度の雲 雲底高度 3050m
全天を覆う雲 雲底高度 7620m
19日16時 CST から 確率 40% で
視程8050m
天気現象雷雨
全天の8割程度の積乱雲 雲底高度 610m
19日20時 CST から
風向・風速北 3m/s
視程10km以上
全天の4割程度の雲 雲底高度 610m
全天を覆う雲 雲底高度 7620m
TAF MMMX 190509Z 1906/2012 10005KT P6SM SCT020 BKN250 TX20/1920Z TN07/1912Z
FM191600 36012KT P6SM SCT100 OVC250
PROB40 1922/2002 5SM TSRA BKN020CB
FM200200 36005KT P6SM SCT020 OVC250